Time;durP1;ratioP1;P1;durP2;ratioP2;P2;SDS_P1;SDS_P2;PMS_P1;PMS_P2;Temp;Humidity;BMP_temperature;BMP_pressure;BME280_temperature;BME280_humidity;BME280_pressure;Samples;Min_cycle;Max_cycle;Signal;HPM_P1;HPM_P2
2021/06/10 00:01:45;;;;;;;0.60;0.55;;;23.70;52.90;;;;;;5046550;28;20462;-42
2021/06/10 00:04:11;;;;;;;0.40;0.40;;;23.70;52.90;;;;;;5049245;28;20029;-41
2021/06/10 00:06:36;;;;;;;0.40;0.40;;;23.70;52.60;;;;;;5054231;28;20475;-41
2021/06/10 00:09:03;;;;;;;2.20;0.65;;;23.70;52.60;;;;;;5046653;28;20056;-42
2021/06/10 00:11:28;;;;;;;0.85;0.63;;;23.70;52.50;;;;;;5045595;28;20057;-36
2021/06/10 00:13:54;;;;;;;0.47;0.47;;;23.60;52.60;;;;;;5045570;28;20053;-42
2021/06/10 00:16:20;;;;;;;0.63;0.45;;;23.70;52.60;;;;;;5048917;28;20499;-41
2021/06/10 00:18:48;;;;;;;1.27;0.40;;;23.70;52.70;;;;;;5035942;28;20077;-32
2021/06/10 00:21:14;;;;;;;0.57;0.40;;;23.70;52.80;;;;;;5043084;28;20107;-42
2021/06/10 00:23:40;;;;;;;0.47;0.40;;;23.60;52.70;;;;;;5041428;28;20105;-41
2021/06/10 00:26:05;;;;;;;1.73;0.52;;;23.70;52.80;;;;;;5037544;28;20400;-41
2021/06/10 00:28:31;;;;;;;0.50;0.32;;;23.60;53.50;;;;;;5043358;28;20025;-41
2021/06/10 00:30:58;;;;;;;0.50;0.50;;;23.60;52.90;;;;;;5049139;28;20077;-41
2021/06/10 00:33:24;;;;;;;0.68;0.50;;;23.60;52.60;;;;;;5037580;28;20518;-42
2021/06/10 00:35:49;;;;;;;0.75;0.50;;;23.70;52.60;;;;;;5037490;28;20026;-41
2021/06/10 00:38:15;;;;;;;0.40;0.40;;;23.60;52.80;;;;;;5036969;28;20029;-40
2021/06/10 00:40:40;;;;;;;1.05;0.50;;;23.60;53.00;;;;;;5039620;28;20051;-41
2021/06/10 00:43:06;;;;;;;0.50;0.40;;;23.60;53.00;;;;;;5032888;28;20029;-41
2021/06/10 00:45:32;;;;;;;0.52;0.40;;;23.50;53.00;;;;;;5053391;28;20056;-41
2021/06/10 00:47:57;;;;;;;0.47;0.47;;;23.50;53.00;;;;;;5038496;28;20026;-42
2021/06/10 00:50:28;;;;;;;0.45;0.30;;;23.50;53.00;;;;;;5045078;28;20032;-42
2021/06/10 00:52:54;;;;;;;0.70;0.30;;;23.60;52.90;;;;;;5044684;28;20034;-41
2021/06/10 00:55:20;;;;;;;0.40;0.40;;;23.50;53.00;;;;;;5046912;28;20023;-42
2021/06/10 00:57:45;;;;;;;0.40;0.40;;;23.50;53.70;;;;;;5048276;28;20503;-41
2021/06/10 01:00:13;;;;;;;0.25;0.25;;;23.40;53.20;;;;;;5048345;28;20032;-41
2021/06/10 01:02:39;;;;;;;0.30;0.25;;;23.50;53.20;;;;;;5040497;28;20025;-41
2021/06/10 01:05:05;;;;;;;0.30;0.30;;;23.60;52.90;;;;;;5044082;28;20568;-42
2021/06/10 01:07:46;;;;;;;0.22;0.22;;;23.50;53.10;;;;;;5043991;28;20013;-41
2021/06/10 01:10:26;;;;;;;0.32;0.32;;;23.50;53.00;;;;;;5031597;28;20054;-42
2021/06/10 01:13:09;;;;;;;1.88;0.45;;;23.50;52.90;;;;;;5047523;28;20073;-36
2021/06/10 01:15:39;;;;;;;0.47;0.43;;;23.50;53.00;;;;;;5037173;28;20029;-41
2021/06/10 01:18:05;;;;;;;0.65;0.47;;;23.50;53.40;;;;;;5028418;28;20533;-44
2021/06/10 01:20:30;;;;;;;0.90;0.40;;;23.50;53.10;;;;;;5059834;28;20065;-43
2021/06/10 01:23:01;;;;;;;0.85;0.50;;;23.40;53.20;;;;;;5045406;28;20441;-40
2021/06/10 01:25:44;;;;;;;0.50;0.50;;;23.40;53.30;;;;;;5046995;28;20499;-41
2021/06/10 01:28:13;;;;;;;0.30;0.30;;;23.40;53.40;;;;;;5048808;28;20029;-41
2021/06/10 01:30:59;;;;;;;0.50;0.40;;;23.40;53.50;;;;;;5048672;28;20029;-41
2021/06/10 01:33:27;;;;;;;0.43;0.30;;;23.40;53.50;;;;;;5064655;28;20044;-42
2021/06/10 01:36:09;;;;;;;0.40;0.40;;;23.30;53.40;;;;;;5054409;28;20087;-41
2021/06/10 01:38:35;;;;;;;0.40;0.40;;;23.40;53.40;;;;;;5040422;28;20041;-43
2021/06/10 01:41:01;;;;;;;0.57;0.30;;;23.40;53.40;;;;;;5034254;28;20038;-42
2021/06/10 01:43:30;;;;;;;0.30;0.30;;;23.40;53.30;;;;;;5061779;28;20025;-42
2021/06/10 01:45:56;;;;;;;0.30;0.30;;;23.40;53.50;;;;;;5057507;28;20044;-44
2021/06/10 01:48:22;;;;;;;0.40;0.40;;;23.30;53.40;;;;;;5051866;28;20044;-41
2021/06/10 01:50:49;;;;;;;0.40;0.40;;;23.30;53.50;;;;;;5056298;28;20024;-39
2021/06/10 01:53:15;;;;;;;0.30;0.30;;;23.40;53.60;;;;;;5028589;28;20033;-41
2021/06/10 01:55:41;;;;;;;0.90;0.38;;;23.40;53.40;;;;;;5028625;28;20022;-41
2021/06/10 01:58:07;;;;;;;0.35;0.35;;;23.40;54.10;;;;;;5050830;28;20029;-41
2021/06/10 02:00:33;;;;;;;0.65;0.50;;;23.40;53.40;;;;;;5061538;28;20388;-41
2021/06/10 02:02:59;;;;;;;0.60;0.40;;;23.40;53.40;;;;;;5056295;28;20025;-33
2021/06/10 02:05:25;;;;;;;0.30;0.30;;;23.30;53.60;;;;;;5023640;28;20036;-42
2021/06/10 02:07:50;;;;;;;0.35;0.35;;;23.30;53.80;;;;;;5048144;28;20044;-41
2021/06/10 02:10:20;;;;;;;0.30;0.30;;;23.30;53.80;;;;;;5047405;28;20022;-40
2021/06/10 02:12:45;;;;;;;0.38;0.38;;;23.30;53.90;;;;;;5062196;28;20122;-40
2021/06/10 02:15:11;;;;;;;0.35;0.35;;;23.30;53.60;;;;;;5037868;28;20033;-41
2021/06/10 02:17:37;;;;;;;0.45;0.30;;;23.30;53.80;;;;;;5043233;28;20028;-41
2021/06/10 02:20:05;;;;;;;0.30;0.30;;;23.30;53.90;;;;;;5059129;28;20049;-41
2021/06/10 02:22:30;;;;;;;0.30;0.30;;;23.20;54.00;;;;;;5033657;28;20492;-39
2021/06/10 02:24:56;;;;;;;0.38;0.30;;;23.20;54.10;;;;;;5047693;28;20040;-41
2021/06/10 02:27:22;;;;;;;0.40;0.40;;;23.20;54.20;;;;;;5045422;28;20023;-41
2021/06/10 02:29:47;;;;;;;0.25;0.25;;;23.20;54.20;;;;;;5042804;28;20032;-43
2021/06/10 02:32:13;;;;;;;0.85;0.40;;;23.20;54.10;;;;;;5041999;28;20029;-35
2021/06/10 02:34:38;;;;;;;0.43;0.43;;;23.20;54.10;;;;;;5045173;28;20037;-40
2021/06/10 02:37:05;;;;;;;0.40;0.40;;;23.20;54.10;;;;;;5047330;28;20526;-41
2021/06/10 02:39:30;;;;;;;0.35;0.35;;;23.20;54.20;;;;;;5035320;28;20529;-40
2021/06/10 02:41:56;;;;;;;0.40;0.35;;;23.20;54.20;;;;;;5056593;28;20021;-29
2021/06/10 02:44:25;;;;;;;0.60;0.50;;;23.30;54.30;;;;;;5039185;28;20033;-41
2021/06/10 02:46:51;;;;;;;0.30;0.30;;;23.30;54.20;;;;;;5045706;28;20148;-41
2021/06/10 02:49:16;;;;;;;0.47;0.40;;;23.20;54.20;;;;;;5030542;28;20529;-41
2021/06/10 02:51:42;;;;;;;0.30;0.30;;;23.20;54.30;;;;;;5016609;28;20078;-41
2021/06/10 02:54:10;;;;;;;0.50;0.50;;;23.30;54.30;;;;;;5013247;28;20035;-41
2021/06/10 02:56:35;;;;;;;0.40;0.40;;;23.20;54.30;;;;;;5046597;28;20452;-42
2021/06/10 02:59:01;;;;;;;0.40;0.40;;;23.20;54.90;;;;;;5044818;28;20068;-41
2021/06/10 03:01:29;;;;;;;0.70;0.70;;;23.20;54.40;;;;;;5060964;28;20021;-41
2021/06/10 03:03:54;;;;;;;0.35;0.35;;;23.20;54.50;;;;;;5045860;28;20086;-41
2021/06/10 03:06:21;;;;;;;0.40;0.40;;;23.40;54.10;;;;;;5021529;28;20029;-37
2021/06/10 03:08:51;;;;;;;0.30;0.30;;;23.30;54.40;;;;;;5035789;28;20056;-42
2021/06/10 03:11:17;;;;;;;0.40;0.40;;;23.30;54.40;;;;;;5031023;28;20029;-42
2021/06/10 03:13:42;;;;;;;0.50;0.50;;;23.30;54.60;;;;;;5057593;28;20473;-42
2021/06/10 03:16:08;;;;;;;0.40;0.40;;;23.30;54.40;;;;;;5065820;28;20021;-41
2021/06/10 03:18:33;;;;;;;0.50;0.50;;;23.40;54.30;;;;;;5050110;28;20533;-42
2021/06/10 03:20:59;;;;;;;0.50;0.50;;;23.40;54.30;;;;;;5065326;28;20032;-42
2021/06/10 03:23:25;;;;;;;0.38;0.38;;;23.50;54.10;;;;;;5046554;28;20037;-42
2021/06/10 03:25:51;;;;;;;0.82;0.57;;;23.40;54.40;;;;;;5030490;28;20075;-42
2021/06/10 03:28:16;;;;;;;0.30;0.30;;;23.40;54.30;;;;;;5066421;28;20113;-42
2021/06/10 03:30:42;;;;;;;0.50;0.50;;;23.40;54.30;;;;;;5065704;28;20033;-42
2021/06/10 03:33:07;;;;;;;0.50;0.50;;;23.50;54.20;;;;;;5056479;28;20459;-44
2021/06/10 03:35:34;;;;;;;0.60;0.50;;;23.50;54.40;;;;;;5042642;28;20025;-42
2021/06/10 03:38:00;;;;;;;0.50;0.50;;;23.50;54.10;;;;;;5052762;28;20494;-42
2021/06/10 03:40:26;;;;;;;0.70;0.70;;;23.40;54.50;;;;;;5050140;28;20113;-42
2021/06/10 03:42:52;;;;;;;0.70;0.70;;;23.30;54.70;;;;;;5040409;28;20122;-37
2021/06/10 03:45:17;;;;;;;0.75;0.75;;;23.30;54.90;;;;;;5063880;28;20044;-43
2021/06/10 03:47:44;;;;;;;0.60;0.60;;;23.20;54.90;;;;;;5039715;28;20025;-42
2021/06/10 03:50:10;;;;;;;0.40;0.40;;;23.20;55.70;;;;;;5038118;28;20072;-42
2021/06/10 03:52:36;;;;;;;0.63;0.63;;;23.20;55.20;;;;;;5047791;28;20069;-42
2021/06/10 03:55:05;;;;;;;0.60;0.60;;;23.30;54.80;;;;;;5049520;28;20088;-42
2021/06/10 03:57:34;;;;;;;0.70;0.70;;;23.30;55.10;;;;;;5038266;28;20038;-42
2021/06/10 04:00:00;;;;;;;0.60;0.60;;;23.20;55.10;;;;;;5032005;28;20057;-42
2021/06/10 04:02:25;;;;;;;0.70;0.70;;;23.20;55.20;;;;;;5048107;28;20025;-42
2021/06/10 04:04:53;;;;;;;0.50;0.50;;;23.20;55.30;;;;;;5049327;28;20033;-42
2021/06/10 04:07:19;;;;;;;0.68;0.68;;;23.30;55.10;;;;;;5045913;28;20514;-41
2021/06/10 04:09:44;;;;;;;0.70;0.70;;;23.20;55.20;;;;;;5053011;28;20058;-23
2021/06/10 04:12:10;;;;;;;0.60;0.60;;;23.30;55.00;;;;;;5060832;28;20025;-41
2021/06/10 04:14:35;;;;;;;0.50;0.50;;;23.30;55.00;;;;;;5041976;28;20030;-42
2021/06/10 04:17:01;;;;;;;0.57;0.57;;;23.30;55.00;;;;;;5041407;28;20017;-42
2021/06/10 04:19:27;;;;;;;0.70;0.70;;;23.40;55.10;;;;;;5034589;28;20041;-42
2021/06/10 04:21:52;;;;;;;0.70;0.70;;;23.30;55.20;;;;;;5042352;28;20860;-45
2021/06/10 04:24:18;;;;;;;0.75;0.75;;;23.40;54.90;;;;;;5047563;28;20107;-42
2021/06/10 04:26:44;;;;;;;0.70;0.70;;;23.50;54.80;;;;;;5045817;28;20052;-42
2021/06/10 04:29:09;;;;;;;0.75;0.70;;;23.60;54.70;;;;;;5045491;28;20029;-41
2021/06/10 04:31:35;;;;;;;0.70;0.70;;;23.40;54.90;;;;;;5034873;28;20061;-41
2021/06/10 04:34:00;;;;;;;1.02;1.02;;;23.50;55.20;;;;;;5048618;28;20033;-43
2021/06/10 04:36:26;;;;;;;1.23;1.23;;;23.40;55.60;;;;;;5037579;28;20105;-42
2021/06/10 04:38:52;;;;;;;1.38;1.27;;;23.20;55.90;;;;;;5037370;28;20033;-43
2021/06/10 04:41:17;;;;;;;1.02;1.02;;;23.20;56.10;;;;;;5028853;28;20025;-43
2021/06/10 04:43:43;;;;;;;1.75;0.90;;;23.10;56.10;;;;;;5048206;28;20040;-43
2021/06/10 04:46:08;;;;;;;1.50;1.40;;;23.10;56.20;;;;;;5048433;28;20021;-42
2021/06/10 04:48:34;;;;;;;2.83;2.72;;;23.30;55.90;;;;;;5051876;28;20032;-41
2021/06/10 04:51:00;;;;;;;2.90;2.80;;;23.80;54.80;;;;;;5035978;28;20033;-42
2021/06/10 04:53:26;;;;;;;2.92;2.83;;;24.00;54.40;;;;;;5044779;28;20021;-42
2021/06/10 04:55:51;;;;;;;3.65;3.13;;;24.10;54.40;;;;;;5048303;28;20520;-43
2021/06/10 04:58:17;;;;;;;13.18;3.38;;;24.10;54.50;;;;;;5047095;28;20079;-43
2021/06/10 05:00:43;;;;;;;5.32;4.10;;;24.00;55.20;;;;;;5046480;28;20403;-41
2021/06/10 05:03:08;;;;;;;4.55;4.15;;;23.90;54.70;;;;;;5045136;28;20025;-42
2021/06/10 05:05:34;;;;;;;5.72;3.60;;;23.80;55.40;;;;;;5037875;28;20029;-41
2021/06/10 05:08:00;;;;;;;4.72;4.30;;;23.70;55.30;;;;;;5042641;28;20086;-43
2021/06/10 05:10:26;;;;;;;4.32;4.00;;;23.70;55.80;;;;;;5047965;28;20037;-42
2021/06/10 05:12:52;;;;;;;7.85;4.03;;;23.60;56.40;;;;;;5047524;28;20025;-41
2021/06/10 05:15:17;;;;;;;7.80;3.90;;;23.40;56.60;;;;;;5037429;28;20026;-42
2021/06/10 05:17:43;;;;;;;9.35;3.88;;;23.10;57.30;;;;;;5041118;28;20379;-41
2021/06/10 05:20:09;;;;;;;3.38;3.08;;;22.80;57.70;;;;;;5047592;28;20426;-40
2021/06/10 05:22:35;;;;;;;7.78;3.28;;;22.60;58.80;;;;;;5049351;28;20052;-41
2021/06/10 05:25:01;;;;;;;6.63;3.42;;;22.40;59.40;;;;;;5045489;28;20499;-43
2021/06/10 05:27:26;;;;;;;12.57;3.70;;;22.30;60.30;;;;;;5047430;28;20031;-42
2021/06/10 05:29:52;;;;;;;13.15;3.75;;;22.30;60.00;;;;;;5043749;28;20529;-42
2021/06/10 05:32:17;;;;;;;8.27;3.80;;;22.40;59.80;;;;;;5043324;28;20026;-42
2021/06/10 05:34:43;;;;;;;7.45;3.40;;;22.30;60.70;;;;;;5040656;28;20029;-43
2021/06/10 05:37:08;;;;;;;8.48;3.53;;;22.40;59.90;;;;;;5032783;28;20017;-42
2021/06/10 05:39:34;;;;;;;6.13;2.78;;;22.30;59.90;;;;;;5036459;28;20091;-43
2021/06/10 05:42:00;;;;;;;5.68;3.28;;;22.30;59.80;;;;;;5042781;28;20509;-42
2021/06/10 05:44:25;;;;;;;8.60;2.80;;;22.40;59.80;;;;;;5044077;28;20032;-43
2021/06/10 05:46:51;;;;;;;5.47;3.40;;;22.40;59.60;;;;;;5046124;28;20029;-43
2021/06/10 05:49:17;;;;;;;5.18;2.72;;;22.40;59.60;;;;;;5040750;28;20535;-42
2021/06/10 05:51:42;;;;;;;6.78;3.20;;;22.50;59.50;;;;;;5036273;28;20029;-43
2021/06/10 05:54:08;;;;;;;5.20;3.25;;;22.50;59.50;;;;;;5043990;28;20052;-44
2021/06/10 05:56:34;;;;;;;3.55;2.72;;;22.40;59.40;;;;;;5044899;28;20028;-42
2021/06/10 05:58:59;;;;;;;3.90;2.65;;;22.50;59.30;;;;;;5045448;28;20103;-43
2021/06/10 06:01:25;;;;;;;4.22;3.20;;;22.60;58.90;;;;;;5032526;28;20034;-42
2021/06/10 06:03:51;;;;;;;3.63;2.67;;;22.60;58.80;;;;;;5033785;28;20033;-42
2021/06/10 06:06:18;;;;;;;2.85;2.50;;;22.70;58.90;;;;;;5047062;28;20431;-42
2021/06/10 06:08:44;;;;;;;5.05;3.03;;;22.60;59.00;;;;;;5043581;28;20131;-41
2021/06/10 06:11:10;;;;;;;3.78;2.80;;;22.60;59.10;;;;;;5043139;28;20029;-42
2021/06/10 06:16:10;;;;;;;4.93;2.80;;;22.60;59.00;;;;;;5031184;28;20024;-43
2021/06/10 06:18:36;;;;;;;2.75;2.40;;;22.70;59.60;;;;;;5040305;28;20047;-43
2021/06/10 06:21:02;;;;;;;5.13;2.47;;;22.60;59.00;;;;;;5011453;28;20029;-46
2021/06/10 06:23:29;;;;;;;2.80;2.40;;;22.60;58.90;;;;;;5043652;28;20025;-44
2021/06/10 06:25:55;;;;;;;3.35;2.65;;;22.60;59.10;;;;;;5027431;28;20120;-44
2021/06/10 06:28:21;;;;;;;2.78;2.58;;;22.60;58.90;;;;;;5046365;28;20112;-43
2021/06/10 06:30:46;;;;;;;3.28;2.35;;;22.80;58.60;;;;;;5051698;28;20057;-42
2021/06/10 06:33:12;;;;;;;3.17;1.95;;;22.80;58.50;;;;;;5036481;28;20539;-44
2021/06/10 06:35:41;;;;;;;3.00;2.45;;;22.90;58.20;;;;;;5035558;28;20033;-42
2021/06/10 06:38:07;;;;;;;2.85;2.53;;;23.10;57.90;;;;;;5034879;28;20036;-44
2021/06/10 06:40:32;;;;;;;2.92;2.13;;;23.10;57.70;;;;;;5047090;28;20017;-44
2021/06/10 06:42:58;;;;;;;2.20;2.03;;;23.00;57.90;;;;;;5036846;28;20021;-43
2021/06/10 06:45:24;;;;;;;2.65;2.10;;;23.20;57.60;;;;;;5050451;28;20116;-44
2021/06/10 06:47:49;;;;;;;3.40;2.53;;;23.20;57.40;;;;;;5041486;28;20052;-43
2021/06/10 06:50:15;;;;;;;2.28;2.08;;;23.30;57.50;;;;;;5044585;28;20057;-43
2021/06/10 06:52:40;;;;;;;2.63;2.40;;;23.30;57.30;;;;;;5048299;28;20053;-42
2021/06/10 06:55:06;;;;;;;3.97;2.28;;;23.30;57.20;;;;;;5050610;28;20040;-43
2021/06/10 06:57:32;;;;;;;3.25;1.85;;;23.30;57.30;;;;;;5049753;28;20024;-43
2021/06/10 06:59:57;;;;;;;2.33;2.15;;;23.30;57.30;;;;;;5040786;28;20049;-42
2021/06/10 07:02:23;;;;;;;2.28;2.08;;;23.30;57.40;;;;;;5039454;28;20032;-43
2021/06/10 07:04:49;;;;;;;3.00;2.00;;;23.40;57.20;;;;;;5039328;28;20049;-39
2021/06/10 07:07:14;;;;;;;2.20;1.98;;;23.30;57.30;;;;;;5034545;28;20021;-42
2021/06/10 07:09:40;;;;;;;2.40;2.22;;;23.30;57.40;;;;;;5038875;28;20050;-42
2021/06/10 07:12:06;;;;;;;2.10;1.90;;;23.30;57.50;;;;;;5039222;28;20480;-43
2021/06/10 07:14:32;;;;;;;2.50;2.30;;;23.20;57.50;;;;;;5041989;28;20100;-42
2021/06/10 07:16:58;;;;;;;1.88;1.75;;;23.30;57.30;;;;;;5046603;28;20116;-43
2021/06/10 07:19:24;;;;;;;2.03;1.75;;;23.40;57.20;;;;;;5050146;28;20571;-42
2021/06/10 07:21:50;;;;;;;2.40;2.20;;;23.50;57.10;;;;;;5036957;28;20092;-43
2021/06/10 07:24:16;;;;;;;1.90;1.80;;;23.50;57.00;;;;;;5047545;28;20035;-42
2021/06/10 07:26:43;;;;;;;2.45;2.25;;;23.50;56.90;;;;;;5046571;28;20021;-43
2021/06/10 07:29:09;;;;;;;2.42;2.22;;;23.50;57.00;;;;;;5047297;28;20038;-42
2021/06/10 07:31:35;;;;;;;2.90;2.22;;;23.30;57.50;;;;;;5052488;28;20021;-42
2021/06/10 07:34:05;;;;;;;2.20;2.00;;;23.40;57.40;;;;;;5036208;28;20048;-42
2021/06/10 07:36:32;;;;;;;1.90;1.75;;;23.40;57.30;;;;;;5021059;28;20023;-43
2021/06/10 07:38:58;;;;;;;1.80;1.70;;;23.50;57.30;;;;;;5038367;28;20042;-43
2021/06/10 07:41:23;;;;;;;2.00;1.90;;;23.50;57.30;;;;;;5038590;28;20104;-42
2021/06/10 07:43:49;;;;;;;1.80;1.70;;;23.60;57.30;;;;;;5038179;28;20033;-43
2021/06/10 07:46:15;;;;;;;3.20;1.80;;;23.60;57.30;;;;;;5034332;28;20446;-43
2021/06/10 07:48:41;;;;;;;2.10;2.00;;;23.60;57.20;;;;;;5042452;28;20471;-41
2021/06/10 07:51:07;;;;;;;1.80;1.70;;;23.70;57.10;;;;;;5038385;28;20116;-43
2021/06/10 07:53:35;;;;;;;2.00;1.90;;;23.70;57.00;;;;;;5042069;28;20041;-43
2021/06/10 07:56:03;;;;;;;1.90;1.80;;;23.50;57.50;;;;;;5048057;28;20017;-43
2021/06/10 07:58:29;;;;;;;1.80;1.70;;;23.50;57.60;;;;;;5035470;28;20041;-43
2021/06/10 08:00:55;;;;;;;2.05;1.90;;;23.50;57.80;;;;;;5036126;28;20026;-42
2021/06/10 08:03:21;;;;;;;1.90;1.80;;;23.60;57.50;;;;;;5050854;28;20395;-42
2021/06/10 08:05:47;;;;;;;1.80;1.70;;;23.50;57.60;;;;;;5045784;28;20086;-43
2021/06/10 08:08:13;;;;;;;2.08;1.85;;;23.60;58.30;;;;;;5045512;28;20045;-42
2021/06/10 08:10:40;;;;;;;1.63;1.52;;;23.60;57.70;;;;;;5049132;28;20036;-42
2021/06/10 08:13:06;;;;;;;1.60;1.50;;;23.60;57.40;;;;;;5034464;28;20147;-42
2021/06/10 08:15:32;;;;;;;1.85;1.75;;;23.60;57.80;;;;;;5038189;28;20152;-42
2021/06/10 08:17:58;;;;;;;1.77;1.67;;;23.40;57.60;;;;;;5037437;28;20033;-42
2021/06/10 08:20:25;;;;;;;1.92;1.83;;;23.50;57.30;;;;;;5037020;28;20056;-43
2021/06/10 08:22:55;;;;;;;1.60;1.50;;;23.70;57.00;;;;;;5037464;28;20027;-42
2021/06/10 08:25:20;;;;;;;1.65;1.55;;;23.80;56.70;;;;;;5047923;28;20407;-44
2021/06/10 08:27:46;;;;;;;1.73;1.40;;;23.90;56.50;;;;;;5052402;28;20021;-35
2021/06/10 08:30:13;;;;;;;1.40;1.30;;;24.00;56.30;;;;;;5046315;28;20033;-41
2021/06/10 08:32:39;;;;;;;1.70;1.60;;;24.10;56.00;;;;;;5043242;28;20057;-42
2021/06/10 08:35:05;;;;;;;1.60;1.50;;;24.20;55.90;;;;;;5037253;28;20049;-41
2021/06/10 08:37:31;;;;;;;1.42;1.33;;;24.20;56.00;;;;;;5035171;28;20025;-23
2021/06/10 08:39:57;;;;;;;1.40;1.30;;;24.20;56.10;;;;;;5034688;28;20491;-43
2021/06/10 08:42:23;;;;;;;1.85;1.40;;;24.30;55.90;;;;;;5063525;28;20059;-43
2021/06/10 08:44:49;;;;;;;1.60;1.50;;;24.30;55.70;;;;;;5041417;28;20132;-41
2021/06/10 08:47:15;;;;;;;3.05;1.50;;;24.40;55.60;;;;;;5052699;28;20493;-43
2021/06/10 08:49:44;;;;;;;2.10;1.90;;;24.40;55.60;;;;;;5061458;28;20092;-40
2021/06/10 08:52:11;;;;;;;1.77;1.67;;;24.50;55.50;;;;;;5031398;28;20029;-45
2021/06/10 08:54:37;;;;;;;1.75;1.40;;;24.50;55.50;;;;;;5063660;28;20048;-42
2021/06/10 08:57:03;;;;;;;1.52;1.42;;;24.60;55.40;;;;;;5053636;28;20056;-42
2021/06/10 08:59:31;;;;;;;1.50;1.40;;;24.50;55.60;;;;;;5039965;28;20119;-44
2021/06/10 09:01:57;;;;;;;1.85;1.60;;;24.40;55.60;;;;;;5061133;28;20064;-43
2021/06/10 09:04:23;;;;;;;1.52;1.42;;;24.60;55.50;;;;;;5032366;28;20048;-41
2021/06/10 09:06:50;;;;;;;1.02;1.02;;;24.50;55.50;;;;;;5050834;28;20029;-45
2021/06/10 09:09:40;;;;;;;2.03;1.83;;;24.50;55.70;;;;;;5037288;28;20482;-43
2021/06/10 09:12:08;;;;;;;1.90;1.75;;;24.50;55.70;;;;;;5036434;28;20124;-45
2021/06/10 09:14:52;;;;;;;1.80;1.70;;;24.50;55.70;;;;;;5027867;28;20029;-44
2021/06/10 09:17:34;;;;;;;1.40;1.30;;;24.60;55.60;;;;;;5044073;28;20044;-44
2021/06/10 09:20:00;;;;;;;1.58;1.48;;;24.60;55.60;;;;;;5037809;28;20048;-43
2021/06/10 09:22:33;;;;;;;1.63;1.35;;;24.60;55.50;;;;;;5047801;28;20438;-41
2021/06/10 09:25:05;;;;;;;1.55;1.45;;;24.60;55.90;;;;;;5047510;28;20503;-41
2021/06/10 09:27:30;;;;;;;1.75;1.65;;;24.30;56.20;;;;;;5050249;28;20118;-41
2021/06/10 09:29:56;;;;;;;1.75;1.40;;;24.30;56.40;;;;;;5045915;28;20049;-41
2021/06/10 09:32:26;;;;;;;2.17;1.83;;;24.20;57.20;;;;;;5045952;28;20395;-41
2021/06/10 09:35:04;;;;;;;2.28;1.80;;;24.30;56.60;;;;;;5045088;28;20452;-42
2021/06/10 09:37:34;;;;;;;1.70;1.58;;;24.30;56.90;;;;;;5046833;28;20039;-44
2021/06/10 09:40:07;;;;;;;3.72;1.67;;;24.30;56.60;;;;;;5048580;28;20039;-42
2021/06/10 09:42:37;;;;;;;1.52;1.42;;;24.30;56.60;;;;;;5032844;28;20036;-40
2021/06/10 09:45:04;;;;;;;1.52;1.42;;;24.30;56.70;;;;;;5037073;28;20033;-41
2021/06/10 09:47:34;;;;;;;1.25;1.15;;;24.30;56.60;;;;;;5035577;28;20022;-41
2021/06/10 09:50:19;;;;;;;1.95;1.85;;;24.40;56.80;;;;;;5039635;28;20098;-41
2021/06/10 09:52:59;;;;;;;3.42;1.40;;;24.40;56.40;;;;;;5046889;28;20020;-42
2021/06/10 09:55:31;;;;;;;1.70;1.60;;;24.60;56.10;;;;;;5033193;28;20407;-42
2021/06/10 09:58:07;;;;;;;1.48;1.38;;;24.60;56.00;;;;;;5033660;28;20456;-41
2021/06/10 10:00:33;;;;;;;1.23;1.13;;;24.60;56.10;;;;;;5051753;28;20029;-41
2021/06/10 10:02:58;;;;;;;1.40;1.30;;;24.50;56.30;;;;;;5042715;28;20032;-40
2021/06/10 10:05:25;;;;;;;1.65;1.48;;;24.60;56.20;;;;;;5042404;28;20467;-41
2021/06/10 10:07:52;;;;;;;1.48;1.38;;;24.50;56.90;;;;;;5035948;28;20021;-40
2021/06/10 10:10:18;;;;;;;1.63;1.52;;;24.40;56.50;;;;;;5031513;28;20483;-34
2021/06/10 10:12:45;;;;;;;1.77;1.67;;;24.60;56.20;;;;;;5036178;28;20030;-41
2021/06/10 10:15:11;;;;;;;1.67;1.58;;;24.60;56.30;;;;;;5045321;28;20108;-41
2021/06/10 10:17:37;;;;;;;1.58;1.48;;;24.60;56.00;;;;;;5044219;28;20134;-41
2021/06/10 10:20:04;;;;;;;1.33;1.23;;;24.60;56.10;;;;;;5054601;28;20183;-41
2021/06/10 10:22:30;;;;;;;1.42;1.33;;;24.70;55.90;;;;;;5037096;28;20029;-38
2021/06/10 10:24:58;;;;;;;1.48;1.38;;;24.70;55.80;;;;;;5037453;28;20065;-42
2021/06/10 10:27:23;;;;;;;1.55;1.45;;;24.80;55.60;;;;;;5047175;28;20021;-41
2021/06/10 10:29:49;;;;;;;1.10;1.10;;;24.80;55.60;;;;;;5042946;28;20052;-41
2021/06/10 10:32:24;;;;;;;1.40;1.30;;;24.70;55.60;;;;;;5055282;28;20025;-40
2021/06/10 10:34:50;;;;;;;1.50;1.40;;;24.70;55.60;;;;;;5051593;28;20022;-42
2021/06/10 10:37:20;;;;;;;1.63;1.52;;;24.70;55.90;;;;;;5052656;28;20032;-41
2021/06/10 10:39:46;;;;;;;1.92;1.83;;;24.60;56.00;;;;;;5051556;28;20091;-41
2021/06/10 10:42:26;;;;;;;1.77;1.67;;;24.70;56.10;;;;;;5040209;28;20061;-43
2021/06/10 10:44:54;;;;;;;1.70;1.60;;;24.70;56.10;;;;;;5058587;28;20044;-35
2021/06/10 10:47:20;;;;;;;1.65;1.55;;;24.70;55.80;;;;;;5043257;28;20085;-41
2021/06/10 10:49:51;;;;;;;1.63;1.52;;;24.70;56.00;;;;;;5042971;28;20510;-41
2021/06/10 10:52:21;;;;;;;2.25;1.45;;;24.50;56.60;;;;;;5049224;28;20056;-41
2021/06/10 10:54:51;;;;;;;1.90;1.80;;;24.60;56.00;;;;;;5050835;28;20025;-36
2021/06/10 10:57:42;;;;;;;1.73;1.63;;;24.80;55.60;;;;;;5040151;28;20507;-41
2021/06/10 11:00:09;;;;;;;1.23;1.23;;;24.90;55.50;;;;;;5046620;28;20039;-39
2021/06/10 11:02:40;;;;;;;1.50;1.40;;;24.80;55.70;;;;;;5062121;28;20025;-41
2021/06/10 11:05:09;;;;;;;2.55;2.20;;;24.80;55.70;;;;;;5047914;28;20039;-41
2021/06/10 11:07:40;;;;;;;1.67;1.58;;;24.80;55.90;;;;;;5037340;28;20033;-41
2021/06/10 11:10:07;;;;;;;1.88;1.77;;;24.80;55.90;;;;;;5035419;28;20490;-42
2021/06/10 11:12:47;;;;;;;1.38;1.27;;;24.80;55.90;;;;;;5052948;28;20025;-42
2021/06/10 11:15:21;;;;;;;2.55;1.50;;;24.80;55.90;;;;;;5051940;28;20029;-42
2021/06/10 11:17:46;;;;;;;1.70;1.60;;;24.80;55.80;;;;;;5048861;28;20032;-43
2021/06/10 11:20:14;;;;;;;1.80;1.50;;;24.90;55.60;;;;;;5051796;28;20033;-42
2021/06/10 11:22:44;;;;;;;3.65;3.40;;;24.90;55.50;;;;;;4699383;28;10000691;-42
2021/06/10 11:25:17;;;;;;;7.00;5.93;;;25.00;55.40;;;;;;5047852;28;20064;-43
2021/06/10 11:27:47;;;;;;;18.33;12.02;;;25.00;55.40;;;;;;5045421;28;20025;-41
2021/06/10 11:30:21;;;;;;;37.40;23.27;;;25.00;55.70;;;;;;5046701;28;20031;-42
2021/06/10 11:33:25;;;;;;;35.75;20.83;;;24.90;55.80;;;;;;5042673;28;20048;-42
2021/06/10 11:36:09;;;;;;;26.13;16.30;;;24.90;56.20;;;;;;4985373;28;20038;-42
2021/06/10 11:38:41;;;;;;;26.38;15.80;;;24.90;56.20;;;;;;4985529;28;20057;-43
2021/06/10 11:41:11;;;;;;;22.77;15.10;;;24.80;56.30;;;;;;4986168;28;20034;-42
2021/06/10 11:43:38;;;;;;;18.92;13.43;;;24.80;56.30;;;;;;4986034;28;20073;-42
2021/06/10 11:46:06;;;;;;;21.48;13.75;;;24.90;56.10;;;;;;4986519;28;20142;-42
2021/06/10 11:48:44;;;;;;;22.83;13.48;;;24.90;56.30;;;;;;4987850;28;20074;-42
2021/06/10 11:51:20;;;;;;;21.40;13.85;;;24.90;56.00;;;;;;4986859;28;20504;-43
2021/06/10 11:53:46;;;;;;;18.15;12.77;;;24.90;56.10;;;;;;4986206;28;20074;-42
2021/06/10 11:56:12;;;;;;;21.50;13.50;;;24.90;56.10;;;;;;4986075;28;20037;-42
2021/06/10 11:58:38;;;;;;;20.23;13.13;;;25.00;56.10;;;;;;4986036;28;20105;-42
2021/06/10 12:01:13;;;;;;;21.80;14.55;;;25.00;55.80;;;;;;4984980;28;20050;-43
2021/06/10 12:03:39;;;;;;;21.35;14.65;;;25.00;55.90;;;;;;4987257;28;20128;-39
2021/06/10 12:06:07;;;;;;;21.05;14.65;;;25.00;55.90;;;;;;4986680;28;20129;-44
2021/06/10 12:08:35;;;;;;;21.60;14.95;;;25.00;55.90;;;;;;4985938;28;20061;-42
2021/06/10 12:11:02;;;;;;;22.85;15.43;;;24.90;56.00;;;;;;4986620;28;20121;-39
2021/06/10 12:13:35;;;;;;;24.23;15.73;;;25.00;55.80;;;;;;5033601;28;20037;-39
2021/06/10 12:16:05;;;;;;;25.43;15.27;;;25.10;55.70;;;;;;5046637;28;20025;-39
2021/06/10 12:18:31;;;;;;;22.73;15.75;;;25.00;56.00;;;;;;5034755;28;20284;-36
2021/06/10 12:21:01;;;;;;;25.70;16.65;;;25.00;56.00;;;;;;5038164;28;20069;-41
2021/06/10 12:23:38;;;;;;;31.33;18.33;;;24.90;56.00;;;;;;5033925;28;20028;-39
2021/06/10 12:26:06;;;;;;;30.13;18.65;;;25.00;56.00;;;;;;5044654;28;20037;-42
2021/06/10 12:28:44;;;;;;;32.22;20.38;;;25.00;56.00;;;;;;5048185;28;20039;-41
2021/06/10 12:31:14;;;;;;;31.63;19.80;;;25.00;56.20;;;;;;5039970;28;20078;-42
2021/06/10 12:33:41;;;;;;;32.45;20.30;;;25.00;56.20;;;;;;5047827;28;20041;-43
2021/06/10 12:36:36;;;;;;;31.55;20.02;;;25.00;56.70;;;;;;5045354;28;20470;-42
2021/06/10 12:39:15;;;;;;;31.10;20.20;;;24.90;56.20;;;;;;5025909;28;20598;-41
2021/06/10 12:41:51;;;;;;;35.47;22.17;;;25.10;55.90;;;;;;5041788;28;20036;-39
2021/06/10 12:44:22;;;;;;;34.28;21.73;;;25.10;55.80;;;;;;5044378;28;20063;-42
2021/06/10 12:46:53;;;;;;;27.35;17.75;;;25.20;55.70;;;;;;5035792;28;20025;-41
2021/06/10 12:49:22;;;;;;;28.35;18.63;;;25.00;55.90;;;;;;5032627;28;20035;-41
2021/06/10 12:51:51;;;;;;;29.33;19.27;;;25.10;55.90;;;;;;5035516;28;20029;-42